Time;durP1;ratioP1;P1;durP2;ratioP2;P2;SDS_P1;SDS_P2;PMS_P1;PMS_P2;Temp;Humidity;BMP_temperature;BMP_pressure;BME280_temperature;BME280_humidity;BME280_pressure;Samples;Min_cycle;Max_cycle;Signal;HPM_P1;HPM_P2
2022/10/12 00:00:46;;;;;;;21.20;16.53;;;13.20;99.90;;;;;;4930946;29;20256;-83
2022/10/12 00:03:12;;;;;;;20.63;16.73;;;13.20;99.90;;;;;;4948433;28;20262;-83
2022/10/12 00:05:39;;;;;;;20.63;16.87;;;13.20;99.90;;;;;;4922651;29;20219;-83
2022/10/12 00:08:06;;;;;;;18.10;15.80;;;13.30;99.90;;;;;;4949969;28;20680;-83
2022/10/12 00:10:33;;;;;;;22.17;16.27;;;13.30;99.90;;;;;;4924324;29;20191;-83
2022/10/12 00:13:01;;;;;;;20.33;15.67;;;13.30;99.90;;;;;;4923335;29;20617;-83
2022/10/12 00:15:29;;;;;;;19.57;15.47;;;13.20;99.90;;;;;;4939838;28;20904;-82
2022/10/12 00:17:56;;;;;;;18.83;13.97;;;13.20;99.90;;;;;;4951143;29;20191;-83
2022/10/12 00:20:23;;;;;;;19.53;15.87;;;13.20;99.90;;;;;;4925437;29;20202;-83
2022/10/12 00:22:49;;;;;;;20.13;15.10;;;13.20;99.90;;;;;;4927531;29;20586;-83
2022/10/12 00:25:16;;;;;;;18.03;15.63;;;13.10;99.90;;;;;;4924056;29;20203;-83
2022/10/12 00:27:45;;;;;;;22.17;17.80;;;13.10;99.90;;;;;;4928259;29;20199;-83
2022/10/12 00:30:12;;;;;;;23.90;17.93;;;13.00;99.90;;;;;;4926873;29;20199;-83
2022/10/12 00:32:41;;;;;;;20.43;17.17;;;13.00;99.90;;;;;;4948039;28;20219;-82
2022/10/12 00:35:08;;;;;;;19.77;16.73;;;13.00;99.90;;;;;;4930002;29;20215;-83
2022/10/12 00:37:35;;;;;;;20.53;16.60;;;13.00;99.90;;;;;;4930366;29;20223;-83
2022/10/12 00:40:02;;;;;;;21.67;17.63;;;12.90;99.90;;;;;;4947950;28;20198;-83
2022/10/12 00:42:29;;;;;;;23.57;17.97;;;13.00;99.90;;;;;;4922591;29;20200;-82
2022/10/12 00:44:56;;;;;;;21.10;17.23;;;12.90;99.90;;;;;;4926364;29;20251;-83
2022/10/12 00:47:28;;;;;;;23.27;18.13;;;12.90;99.90;;;;;;4950207;28;20237;-83
2022/10/12 00:50:01;;;;;;;21.73;17.17;;;12.90;99.90;;;;;;4928120;29;20661;-83
2022/10/12 00:52:33;;;;;;;23.40;18.57;;;12.80;99.90;;;;;;4937983;28;20246;-83
2022/10/12 00:55:01;;;;;;;21.97;16.43;;;12.80;99.90;;;;;;4922383;29;20219;-83
2022/10/12 00:57:28;;;;;;;24.47;15.97;;;12.80;99.90;;;;;;4930373;29;20209;-83
2022/10/12 01:00:00;;;;;;;17.13;14.63;;;12.70;99.90;;;;;;4947266;28;20254;-83
2022/10/12 01:02:29;;;;;;;16.30;13.87;;;12.50;99.90;;;;;;4947348;28;20199;-83
2022/10/12 01:04:58;;;;;;;15.70;14.00;;;12.50;99.90;;;;;;4924789;29;20203;-83
2022/10/12 01:07:25;;;;;;;16.83;14.63;;;12.40;99.90;;;;;;4926077;29;20217;-83
2022/10/12 01:09:52;;;;;;;22.97;17.07;;;12.40;99.90;;;;;;4926740;29;20218;-83
2022/10/12 01:12:20;;;;;;;17.10;14.63;;;12.30;99.90;;;;;;4925334;29;20642;-83
2022/10/12 01:14:47;;;;;;;19.27;15.70;;;12.30;99.90;;;;;;4932418;28;20221;-83
2022/10/12 01:17:29;;;;;;;21.37;17.47;;;12.30;99.90;;;;;;4931524;29;20222;-83
2022/10/12 01:20:41;;;;;;;30.57;18.17;;;12.30;99.90;;;;;;4929621;29;20195;-83
2022/10/12 01:23:53;;;;;;;21.10;18.17;;;12.40;99.90;;;;;;4919935;29;20230;-83
2022/10/12 01:26:57;;;;;;;16.83;14.77;;;12.40;99.90;;;;;;4924644;29;20227;-83
2022/10/12 01:29:50;;;;;;;24.30;18.37;;;12.50;99.90;;;;;;4946949;28;20206;-82
2022/10/12 01:32:23;;;;;;;22.47;18.23;;;12.50;99.90;;;;;;4913987;29;20203;-83
2022/10/12 01:34:57;;;;;;;26.90;19.60;;;12.50;99.90;;;;;;4930977;29;20206;-83
2022/10/12 01:37:31;;;;;;;24.53;19.47;;;12.60;99.90;;;;;;4949159;29;20275;-83
2022/10/12 01:40:03;;;;;;;18.97;15.60;;;12.60;99.90;;;;;;4929031;29;20203;-83
2022/10/12 01:42:32;;;;;;;25.17;19.03;;;12.60;99.90;;;;;;4921482;29;20206;-82
2022/10/12 01:45:04;;;;;;;24.10;18.47;;;12.60;99.90;;;;;;4947827;28;20213;-83
2022/10/12 01:47:33;;;;;;;21.97;17.17;;;12.70;99.90;;;;;;4926167;29;20269;-83
2022/10/12 01:50:01;;;;;;;26.97;17.97;;;12.70;99.90;;;;;;4956933;28;20205;-83
2022/10/12 01:52:30;;;;;;;22.77;18.43;;;12.60;99.90;;;;;;4924280;29;20266;-83
2022/10/12 01:55:07;;;;;;;24.27;19.17;;;12.60;99.90;;;;;;4923250;29;20207;-83
2022/10/12 01:57:46;;;;;;;28.80;20.20;;;12.60;99.90;;;;;;4946309;28;20191;-83
2022/10/12 02:00:15;;;;;;;27.00;20.00;;;12.70;99.90;;;;;;4921015;28;20235;-83
2022/10/12 02:02:54;;;;;;;26.07;20.30;;;12.60;99.90;;;;;;4945428;28;20240;-82
2022/10/12 02:05:29;;;;;;;31.20;23.20;;;12.70;99.90;;;;;;4948685;29;20230;-83
2022/10/12 02:08:03;;;;;;;26.43;21.80;;;12.70;99.90;;;;;;4946100;29;20269;-83
2022/10/12 02:10:36;;;;;;;31.60;22.53;;;12.70;99.90;;;;;;4931015;29;20212;-83
2022/10/12 02:13:07;;;;;;;31.60;22.17;;;12.80;99.90;;;;;;4922057;29;20207;-83
2022/10/12 02:15:35;;;;;;;31.00;22.73;;;12.80;99.90;;;;;;4931774;29;20233;-83
2022/10/12 02:18:05;;;;;;;37.43;25.30;;;12.70;99.90;;;;;;4925074;29;20210;-84
2022/10/12 02:20:34;;;;;;;31.50;23.30;;;12.70;99.90;;;;;;4941630;28;20561;-83
2022/10/12 02:23:02;;;;;;;29.63;22.70;;;12.70;99.90;;;;;;4945019;28;20218;-83
2022/10/12 02:25:31;;;;;;;28.57;21.67;;;12.80;99.90;;;;;;4928839;28;20322;-83
2022/10/12 02:28:06;;;;;;;26.10;21.93;;;12.70;99.90;;;;;;4921022;29;20191;-83
2022/10/12 02:30:37;;;;;;;26.53;19.90;;;12.70;99.90;;;;;;4928662;29;20207;-83
2022/10/12 02:33:11;;;;;;;28.13;23.03;;;12.70;99.90;;;;;;4922038;29;20218;-83
2022/10/12 02:35:43;;;;;;;32.47;24.43;;;12.70;99.90;;;;;;4925790;29;20219;-83
2022/10/12 02:38:14;;;;;;;33.20;23.30;;;12.70;99.90;;;;;;4950065;28;20209;-83
2022/10/12 02:40:47;;;;;;;32.37;25.03;;;12.70;99.90;;;;;;4924531;29;20285;-83
2022/10/12 02:43:20;;;;;;;34.63;23.93;;;12.70;99.90;;;;;;4947578;28;20210;-83
2022/10/12 02:45:49;;;;;;;32.33;25.13;;;12.70;99.90;;;;;;4928608;29;20606;-82
2022/10/12 02:48:22;;;;;;;33.10;25.97;;;12.70;99.90;;;;;;4948288;28;20191;-81
2022/10/12 02:50:50;;;;;;;35.00;25.23;;;12.70;99.90;;;;;;4930317;28;20254;-83
2022/10/12 02:53:17;;;;;;;35.03;26.53;;;12.70;99.90;;;;;;4954401;29;20632;-81
2022/10/12 02:55:49;;;;;;;34.17;27.23;;;12.70;99.90;;;;;;4944232;28;20219;-80
2022/10/12 02:58:20;;;;;;;36.50;25.70;;;12.70;99.90;;;;;;4955160;29;20191;-80
2022/10/12 03:00:47;;;;;;;30.03;22.67;;;12.60;99.90;;;;;;4929228;29;20203;-81
2022/10/12 03:03:18;;;;;;;27.60;21.87;;;12.70;99.90;;;;;;4924432;29;20284;-80
2022/10/12 03:05:45;;;;;;;33.97;25.43;;;12.70;99.90;;;;;;4946277;29;20218;-81
2022/10/12 03:08:12;;;;;;;30.77;22.90;;;12.70;99.90;;;;;;4921025;29;20301;-81
2022/10/12 03:10:39;;;;;;;25.43;20.60;;;12.70;99.90;;;;;;4927265;28;20209;-81
2022/10/12 03:13:08;;;;;;;31.03;23.73;;;12.70;99.90;;;;;;4940481;29;20217;-81
2022/10/12 03:15:35;;;;;;;38.43;25.00;;;12.70;99.90;;;;;;4923233;29;20226;-80
2022/10/12 03:18:06;;;;;;;36.07;25.43;;;12.70;99.90;;;;;;4934919;29;20213;-81
2022/10/12 03:20:37;;;;;;;34.07;24.10;;;12.70;99.90;;;;;;4932978;29;20202;-83
2022/10/12 03:23:04;;;;;;;27.80;22.27;;;12.70;99.90;;;;;;4953092;28;20220;-79
2022/10/12 03:25:32;;;;;;;35.87;23.93;;;12.70;99.90;;;;;;4949185;29;20604;-81
2022/10/12 03:28:00;;;;;;;40.57;26.30;;;12.80;99.90;;;;;;4947377;28;20248;-81
2022/10/12 03:30:27;;;;;;;35.60;25.87;;;12.70;99.90;;;;;;4929380;29;20205;-81
2022/10/12 03:32:54;;;;;;;39.00;25.43;;;12.80;99.90;;;;;;4957528;28;20205;-80
2022/10/12 03:35:22;;;;;;;36.47;26.77;;;12.80;99.90;;;;;;4941740;29;20226;-81
2022/10/12 03:37:50;;;;;;;33.57;23.90;;;12.80;99.90;;;;;;4950893;28;20214;-81
2022/10/12 03:40:25;;;;;;;30.37;22.30;;;12.80;99.90;;;;;;4926328;29;20206;-84
2022/10/12 03:42:55;;;;;;;34.90;26.60;;;12.80;99.90;;;;;;4934018;29;20577;-83
2022/10/12 03:45:22;;;;;;;32.60;24.47;;;12.80;99.90;;;;;;4931504;28;20219;-82
2022/10/12 03:47:49;;;;;;;28.83;21.33;;;12.80;99.90;;;;;;4954198;29;20225;-83
2022/10/12 03:50:16;;;;;;;35.83;25.97;;;12.80;99.90;;;;;;4935163;29;20209;-83
2022/10/12 03:52:43;;;;;;;32.60;23.93;;;12.80;99.90;;;;;;4946825;29;20238;-80
2022/10/12 03:55:12;;;;;;;36.80;25.17;;;12.80;99.90;;;;;;4935704;29;20287;-83
2022/10/12 03:57:39;;;;;;;33.73;25.00;;;12.80;99.90;;;;;;4936934;29;20223;-83
2022/10/12 04:00:07;;;;;;;40.27;27.80;;;12.70;99.90;;;;;;4929434;29;20213;-84
2022/10/12 04:02:38;;;;;;;32.57;24.43;;;12.70;99.90;;;;;;4952327;28;20211;-83
2022/10/12 04:05:06;;;;;;;30.10;23.30;;;12.70;99.90;;;;;;4934283;28;20203;-83
2022/10/12 04:07:33;;;;;;;30.70;24.33;;;12.60;99.90;;;;;;4934618;29;20203;-83
2022/10/12 04:10:00;;;;;;;29.10;22.30;;;12.60;99.90;;;;;;4930892;29;20195;-83
2022/10/12 04:12:28;;;;;;;29.90;22.70;;;12.70;99.90;;;;;;4940065;29;20218;-83
2022/10/12 04:14:55;;;;;;;34.13;23.47;;;12.70;99.90;;;;;;4925353;29;20665;-84
2022/10/12 04:17:22;;;;;;;28.90;22.33;;;12.70;99.90;;;;;;4931023;29;20280;-83
2022/10/12 04:19:49;;;;;;;26.00;20.60;;;12.70;99.90;;;;;;4930887;29;20210;-83
2022/10/12 04:22:16;;;;;;;23.57;19.90;;;12.60;99.90;;;;;;4931213;28;20209;-84
2022/10/12 04:24:43;;;;;;;22.53;19.73;;;12.60;99.90;;;;;;4931272;28;20686;-83
2022/10/12 04:27:10;;;;;;;26.77;21.80;;;12.60;99.90;;;;;;4930698;29;20257;-83
2022/10/12 04:29:39;;;;;;;28.57;21.80;;;12.60;99.90;;;;;;4922243;29;20199;-83
2022/10/12 04:32:06;;;;;;;26.03;20.40;;;12.60;99.90;;;;;;4928465;29;20211;-83
2022/10/12 04:34:34;;;;;;;31.37;23.67;;;12.60;99.90;;;;;;4929392;29;20301;-83
2022/10/12 04:37:01;;;;;;;25.53;20.40;;;12.60;99.90;;;;;;4922892;29;20306;-84
2022/10/12 04:39:29;;;;;;;22.47;19.07;;;12.60;99.90;;;;;;4925550;29;20261;-84
2022/10/12 04:41:56;;;;;;;28.03;21.77;;;12.60;99.90;;;;;;4929104;29;20210;-83
2022/10/12 04:44:23;;;;;;;32.23;23.33;;;12.60;99.90;;;;;;4955151;28;20673;-83
2022/10/12 04:46:51;;;;;;;29.07;21.27;;;12.60;99.90;;;;;;4929817;29;20258;-84
2022/10/12 04:49:18;;;;;;;32.53;23.30;;;12.70;99.90;;;;;;4945038;29;20307;-84
2022/10/12 04:51:45;;;;;;;31.53;23.17;;;12.60;99.90;;;;;;4930824;29;20664;-83
2022/10/12 04:54:15;;;;;;;33.13;24.80;;;12.60;99.90;;;;;;4929803;29;20210;-84
2022/10/12 04:56:42;;;;;;;29.23;22.80;;;12.60;99.90;;;;;;4940335;29;20460;-83
2022/10/12 04:59:09;;;;;;;33.53;23.83;;;12.60;99.90;;;;;;4955215;28;20199;-83
2022/10/12 05:01:37;;;;;;;28.10;23.03;;;12.60;99.90;;;;;;4929496;29;20211;-83
2022/10/12 05:04:05;;;;;;;28.37;21.77;;;12.70;99.90;;;;;;4933519;29;20209;-81
2022/10/12 05:06:32;;;;;;;26.23;20.93;;;12.60;99.90;;;;;;4929842;29;20234;-84
2022/10/12 05:08:59;;;;;;;27.97;22.57;;;12.60;99.90;;;;;;4934500;29;20210;-83
2022/10/12 05:11:26;;;;;;;31.17;23.03;;;12.60;99.90;;;;;;4932600;28;20202;-83
2022/10/12 05:13:53;;;;;;;31.43;23.70;;;12.70;99.90;;;;;;4932452;29;20206;-83
2022/10/12 05:16:21;;;;;;;32.43;23.53;;;12.70;99.90;;;;;;4936597;29;20257;-85
2022/10/12 05:18:48;;;;;;;33.30;24.20;;;12.70;99.90;;;;;;4929554;29;20264;-83
2022/10/12 05:21:16;;;;;;;33.87;25.30;;;12.70;99.90;;;;;;4930629;29;20261;-84
2022/10/12 05:23:43;;;;;;;28.33;21.93;;;12.80;99.90;;;;;;4944437;29;20224;-84
2022/10/12 05:26:10;;;;;;;27.50;22.00;;;12.70;99.90;;;;;;4933153;29;20221;-83
2022/10/12 05:28:38;;;;;;;29.47;23.47;;;12.70;99.90;;;;;;4921241;29;20236;-83
2022/10/12 05:31:05;;;;;;;27.53;22.10;;;12.80;99.90;;;;;;4931596;29;20615;-84
2022/10/12 05:33:32;;;;;;;24.83;20.07;;;12.80;99.90;;;;;;4942500;28;20618;-83
2022/10/12 05:35:59;;;;;;;24.90;19.97;;;12.80;99.90;;;;;;4932105;29;20230;-84
2022/10/12 05:38:27;;;;;;;25.47;19.63;;;12.80;99.90;;;;;;4929674;29;20643;-84
2022/10/12 05:40:54;;;;;;;24.30;20.00;;;12.80;99.90;;;;;;4929483;29;20195;-83
2022/10/12 05:43:22;;;;;;;25.50;20.20;;;12.80;99.90;;;;;;4947891;28;20402;-83
2022/10/12 05:45:49;;;;;;;25.67;21.17;;;12.80;99.90;;;;;;4930374;29;20236;-83
2022/10/12 05:48:18;;;;;;;23.43;19.83;;;12.80;99.90;;;;;;4931343;28;20256;-84
2022/10/12 05:50:45;;;;;;;27.70;22.53;;;12.90;99.90;;;;;;4936424;28;20197;-84
2022/10/12 05:53:12;;;;;;;29.83;23.20;;;12.90;99.90;;;;;;4930895;29;20217;-83
2022/10/12 05:55:40;;;;;;;29.97;23.90;;;12.90;99.90;;;;;;4935340;29;20297;-84
2022/10/12 05:58:07;;;;;;;29.70;23.93;;;12.90;99.90;;;;;;4932158;29;20226;-84
2022/10/12 06:00:34;;;;;;;25.60;20.60;;;12.90;99.90;;;;;;4953797;29;20199;-84
2022/10/12 06:03:01;;;;;;;28.03;23.93;;;12.90;99.90;;;;;;4936634;28;20207;-84
2022/10/12 06:05:28;;;;;;;25.70;20.33;;;13.00;99.90;;;;;;4931839;29;20237;-84
2022/10/12 06:07:55;;;;;;;25.50;21.43;;;13.00;99.90;;;;;;4928292;29;20214;-84
2022/10/12 06:10:22;;;;;;;25.23;21.13;;;13.00;99.90;;;;;;4931640;29;20640;-83
2022/10/12 06:12:51;;;;;;;25.83;20.00;;;13.00;99.90;;;;;;4930253;29;20209;-83
2022/10/12 06:15:18;;;;;;;26.37;20.50;;;13.00;99.90;;;;;;4925528;29;20206;-83
2022/10/12 06:17:45;;;;;;;26.20;21.70;;;13.00;99.90;;;;;;4944053;28;20294;-83
2022/10/12 06:20:12;;;;;;;22.27;18.67;;;13.00;99.90;;;;;;4928593;29;20744;-84
2022/10/12 06:22:39;;;;;;;28.80;22.50;;;13.00;99.90;;;;;;4942642;29;20251;-83
2022/10/12 06:25:07;;;;;;;25.63;21.37;;;13.00;99.90;;;;;;4931269;29;20254;-83
2022/10/12 06:27:34;;;;;;;27.80;22.00;;;13.00;99.90;;;;;;4931974;29;20282;-83
2022/10/12 06:30:03;;;;;;;27.00;21.30;;;13.00;99.90;;;;;;4928510;29;20203;-83
2022/10/12 06:32:30;;;;;;;26.60;22.90;;;13.00;99.90;;;;;;4928871;29;20244;-84
2022/10/12 06:34:57;;;;;;;29.03;21.57;;;13.00;99.90;;;;;;4930815;29;20680;-83
2022/10/12 06:37:24;;;;;;;31.37;23.60;;;13.00;99.90;;;;;;4925160;29;20221;-83
2022/10/12 06:39:50;;;;;;;30.07;21.33;;;13.10;99.90;;;;;;4926159;29;20198;-83
2022/10/12 06:42:17;;;;;;;27.00;21.60;;;13.10;99.90;;;;;;4928532;28;20210;-83
2022/10/12 06:44:50;;;;;;;27.93;21.50;;;13.20;99.90;;;;;;4919893;28;20289;-84
2022/10/12 06:47:18;;;;;;;27.77;20.43;;;13.20;99.90;;;;;;4930099;29;20223;-83
2022/10/12 06:49:45;;;;;;;25.00;19.60;;;13.30;99.90;;;;;;4928766;29;20203;-83
2022/10/12 06:52:12;;;;;;;25.73;20.63;;;13.30;99.90;;;;;;4923199;29;20203;-83
2022/10/12 06:54:40;;;;;;;25.47;20.60;;;13.30;99.90;;;;;;4931265;29;20574;-83
2022/10/12 06:57:07;;;;;;;22.93;20.10;;;13.40;99.90;;;;;;4923332;29;20226;-83
2022/10/12 06:59:33;;;;;;;26.13;20.83;;;13.40;99.90;;;;;;4927130;29;20262;-83
2022/10/12 07:02:00;;;;;;;24.33;20.13;;;13.50;99.90;;;;;;4920307;29;20214;-83
2022/10/12 07:04:28;;;;;;;26.03;20.70;;;13.50;99.90;;;;;;4930048;28;20202;-83
2022/10/12 07:06:55;;;;;;;24.87;20.67;;;13.50;99.90;;;;;;4931248;28;20265;-83
2022/10/12 07:09:22;;;;;;;25.93;20.37;;;13.50;99.90;;;;;;4928414;29;20295;-83
2022/10/12 07:11:49;;;;;;;25.33;21.20;;;13.60;99.90;;;;;;4929939;29;20221;-83
2022/10/12 07:14:16;;;;;;;24.90;19.97;;;13.70;99.90;;;;;;4929403;29;20298;-85
2022/10/12 07:16:43;;;;;;;23.43;20.50;;;13.70;99.90;;;;;;4921750;29;20230;-83
2022/10/12 07:19:10;;;;;;;22.80;19.07;;;13.80;99.90;;;;;;4946849;28;20289;-83
2022/10/12 07:21:39;;;;;;;22.53;18.43;;;13.80;99.90;;;;;;4929396;29;20207;-83
2022/10/12 07:24:06;;;;;;;22.40;18.67;;;13.90;99.90;;;;;;4946062;28;20211;-83
2022/10/12 07:26:33;;;;;;;21.63;18.47;;;13.90;99.90;;;;;;4929947;29;20218;-83
2022/10/12 07:29:01;;;;;;;22.40;18.33;;;13.90;99.90;;;;;;4927900;29;20203;-80
2022/10/12 07:31:28;;;;;;;20.00;17.73;;;14.00;99.90;;;;;;4946147;28;20203;-79
2022/10/12 07:33:55;;;;;;;20.47;17.43;;;14.20;99.90;;;;;;4931339;29;20257;-80
2022/10/12 07:36:22;;;;;;;19.33;17.23;;;14.30;99.90;;;;;;4923225;29;20286;-80
2022/10/12 07:38:50;;;;;;;21.70;17.97;;;14.40;99.90;;;;;;4948728;28;20302;-80
2022/10/12 07:41:17;;;;;;;22.60;17.23;;;14.50;99.90;;;;;;4925030;29;20201;-80
2022/10/12 07:43:44;;;;;;;21.30;17.73;;;14.60;99.90;;;;;;4944811;28;20205;-80
2022/10/12 07:46:11;;;;;;;21.50;17.40;;;14.70;99.90;;;;;;4920217;29;20239;-85
2022/10/12 07:48:40;;;;;;;17.97;16.07;;;14.70;99.90;;;;;;4928096;28;20291;-83
2022/10/12 07:51:08;;;;;;;20.03;16.87;;;14.80;99.90;;;;;;4927708;29;20206;-83
2022/10/12 07:53:36;;;;;;;18.40;15.83;;;14.90;99.90;;;;;;4934257;29;20210;-83
2022/10/12 07:56:08;;;;;;;22.90;15.33;;;15.00;99.90;;;;;;4946608;28;20225;-82
2022/10/12 07:58:34;;;;;;;15.30;12.27;;;15.10;99.90;;;;;;4927681;29;20713;-83
2022/10/12 08:01:04;;;;;;;14.60;11.90;;;15.10;99.90;;;;;;4945515;28;20637;-84
2022/10/12 08:03:31;;;;;;;13.43;10.70;;;15.20;99.90;;;;;;4944583;28;20229;-84
2022/10/12 08:05:58;;;;;;;18.07;11.67;;;15.30;99.90;;;;;;4944514;28;20399;-83
2022/10/12 08:08:25;;;;;;;14.80;11.27;;;15.30;99.90;;;;;;4931123;29;20204;-83
2022/10/12 08:10:52;;;;;;;15.07;10.17;;;15.20;99.90;;;;;;4931733;29;20205;-84
2022/10/12 08:13:20;;;;;;;13.37;10.43;;;15.30;99.90;;;;;;4947971;28;20245;-83
2022/10/12 08:15:49;;;;;;;16.57;10.50;;;15.30;99.90;;;;;;4925898;29;20602;-83
2022/10/12 08:18:16;;;;;;;11.00;9.83;;;15.30;99.90;;;;;;4936910;28;20616;-83
2022/10/12 08:20:43;;;;;;;11.33;9.20;;;15.40;99.90;;;;;;4933701;29;20208;-83
2022/10/12 08:23:09;;;;;;;11.50;9.13;;;15.40;99.90;;;;;;4932956;28;20198;-83
2022/10/12 08:25:36;;;;;;;13.07;9.40;;;15.50;99.90;;;;;;4947645;28;20247;-83
2022/10/12 08:28:03;;;;;;;13.20;9.70;;;15.60;99.90;;;;;;4930654;29;20398;-84
2022/10/12 08:30:33;;;;;;;12.03;10.03;;;15.60;99.90;;;;;;4947529;29;20205;-83
2022/10/12 08:33:00;;;;;;;12.60;11.30;;;15.60;99.90;;;;;;4932505;29;20198;-83
2022/10/12 08:35:26;;;;;;;10.97;8.93;;;15.60;99.90;;;;;;4944416;28;20214;-83
2022/10/12 08:37:54;;;;;;;9.73;8.70;;;15.60;99.90;;;;;;4927345;29;20215;-83
2022/10/12 08:40:28;;;;;;;11.50;10.30;;;15.70;99.90;;;;;;4932737;29;20199;-83
2022/10/12 08:43:04;;;;;;;12.83;11.63;;;15.70;99.90;;;;;;4930072;28;20205;-83
2022/10/12 08:45:42;;;;;;;14.80;13.53;;;15.70;99.90;;;;;;4930682;29;20218;-83
2022/10/12 08:48:13;;;;;;;13.50;12.27;;;15.80;99.90;;;;;;4932334;29;20191;-84
2022/10/12 08:50:46;;;;;;;10.80;9.70;;;15.80;99.90;;;;;;4932443;29;20275;-83
2022/10/12 08:53:18;;;;;;;9.57;8.60;;;15.80;99.90;;;;;;4949048;29;20222;-84
2022/10/12 08:55:46;;;;;;;9.43;8.53;;;15.90;99.90;;;;;;4925769;29;20226;-83
2022/10/12 08:58:19;;;;;;;13.63;8.13;;;16.00;99.90;;;;;;4938322;29;20581;-83
2022/10/12 09:00:52;;;;;;;8.20;7.07;;;16.00;99.90;;;;;;4941011;29;20213;-83
2022/10/12 09:03:28;;;;;;;10.57;8.30;;;16.00;99.90;;;;;;4934760;29;20203;-82
2022/10/12 09:06:07;;;;;;;10.03;9.03;;;15.90;99.90;;;;;;4948892;28;20711;-83
2022/10/12 09:08:48;;;;;;;9.87;8.87;;;15.90;99.90;;;;;;4942525;28;20642;-83
2022/10/12 09:11:32;;;;;;;33.67;12.87;;;16.00;99.90;;;;;;4925237;29;20617;-82
2022/10/12 09:14:06;;;;;;;15.80;9.27;;;16.00;99.90;;;;;;4927332;29;20211;-84
2022/10/12 09:16:39;;;;;;;9.40;6.60;;;16.00;99.90;;;;;;4927011;29;20270;-84
2022/10/12 09:19:11;;;;;;;8.23;7.10;;;16.00;99.90;;;;;;4929790;29;20223;-83
2022/10/12 09:21:41;;;;;;;7.10;6.03;;;16.00;99.90;;;;;;4939248;29;20692;-82
2022/10/12 09:24:14;;;;;;;11.40;10.40;;;16.10;99.90;;;;;;4921520;29;20204;-82
2022/10/12 09:26:42;;;;;;;13.93;10.63;;;16.10;99.90;;;;;;4921409;29;20227;-83
2022/10/12 09:29:22;;;;;;;15.17;11.17;;;16.00;99.90;;;;;;4921103;29;20200;-82
2022/10/12 09:32:05;;;;;;;13.00;7.33;;;16.00;99.90;;;;;;4946248;28;20223;-81
2022/10/12 09:34:32;;;;;;;12.30;9.97;;;16.10;99.90;;;;;;4929569;29;20210;-82
2022/10/12 09:37:02;;;;;;;10.47;8.73;;;16.20;99.90;;;;;;4925433;29;20222;-82
2022/10/12 09:39:32;;;;;;;12.33;6.87;;;16.10;99.90;;;;;;4925290;28;20334;-81
2022/10/12 09:41:59;;;;;;;12.43;11.13;;;16.20;99.90;;;;;;4952452;28;20213;-81
2022/10/12 09:44:31;;;;;;;12.43;11.33;;;16.30;99.90;;;;;;4948137;28;20218;-84
2022/10/12 09:47:01;;;;;;;9.90;8.93;;;16.30;99.90;;;;;;4931551;29;20317;-83
2022/10/12 09:49:42;;;;;;;12.50;9.77;;;16.30;99.90;;;;;;4923055;29;20201;-82
2022/10/12 09:52:10;;;;;;;11.30;10.13;;;16.40;99.90;;;;;;4953744;28;20209;-83
2022/10/12 09:54:40;;;;;;;9.20;8.37;;;16.40;99.90;;;;;;4928997;29;20206;-83
2022/10/12 09:57:23;;;;;;;11.80;10.07;;;16.40;99.90;;;;;;4941523;28;20219;-83
2022/10/12 09:59:51;;;;;;;10.30;9.27;;;16.40;99.90;;;;;;4928965;29;20226;-82
2022/10/12 10:02:20;;;;;;;10.27;9.27;;;16.40;99.90;;;;;;4932680;29;20203;-82
2022/10/12 10:04:51;;;;;;;10.13;9.13;;;16.30;99.90;;;;;;4931308;29;20294;-82
2022/10/12 10:07:29;;;;;;;9.87;8.97;;;16.40;99.90;;;;;;4929167;29;20285;-82
2022/10/12 10:10:16;;;;;;;11.50;9.43;;;16.50;99.90;;;;;;4920740;29;20195;-83
2022/10/12 10:13:10;;;;;;;;;;;;;;;;;;;;;
2022/10/12 10:15:38;;;;;;;14.43;13.23;;;16.50;99.90;;;;;;4946206;28;20245;-83
2022/10/12 10:18:24;;;;;;;11.77;10.77;;;16.40;99.90;;;;;;4933400;29;20211;-83
2022/10/12 10:21:15;;;;;;;13.53;12.43;;;16.40;99.90;;;;;;4928413;29;20199;-83
2022/10/12 10:23:55;;;;;;;12.80;11.70;;;16.40;99.90;;;;;;4927369;29;20195;-83
2022/10/12 10:26:54;;;;;;;13.87;12.77;;;16.40;99.90;;;;;;4929072;29;20231;-84
2022/10/12 10:29:34;;;;;;;13.80;12.70;;;16.40;99.90;;;;;;4929863;29;20209;-79
2022/10/12 10:55:18;;;;;;;;;;;;;;;;;;;;;
2022/10/12 11:05:17;;;;;;;13.40;12.40;;;16.80;99.90;;;;;;4873852;29;20215;-83
2022/10/12 11:07:49;;;;;;;15.67;14.07;;;16.90;99.90;;;;;;4924267;29;20204;-83
2022/10/12 11:10:22;;;;;;;14.23;13.03;;;16.90;99.90;;;;;;4931127;29;20203;-83
2022/10/12 11:12:55;;;;;;;13.67;12.40;;;16.90;99.90;;;;;;4917589;29;20215;-85
2022/10/12 11:15:26;;;;;;;10.60;9.70;;;17.00;99.90;;;;;;4944661;29;20230;-83
2022/10/12 11:18:00;;;;;;;10.20;9.30;;;17.10;99.90;;;;;;4924532;29;20198;-83
2022/10/12 11:20:39;;;;;;;10.93;9.87;;;17.20;99.90;;;;;;4926138;29;20213;-83
2022/10/12 11:23:15;;;;;;;12.97;11.87;;;17.30;99.90;;;;;;4925462;29;20223;-85
2022/10/12 11:25:58;;;;;;;15.30;13.90;;;17.30;99.90;;;;;;4925371;29;20226;-84
2022/10/12 11:28:30;;;;;;;14.40;13.30;;;17.30;99.90;;;;;;4925327;29;20207;-83
2022/10/12 11:30:58;;;;;;;10.50;9.40;;;17.30;99.90;;;;;;4921208;29;20207;-83
2022/10/12 11:33:29;;;;;;;6.90;5.50;;;17.50;99.90;;;;;;4937195;29;20217;-83
2022/10/12 11:35:59;;;;;;;8.93;6.07;;;17.50;99.90;;;;;;4930625;29;20223;-83
2022/10/12 11:38:31;;;;;;;14.50;13.30;;;17.50;99.90;;;;;;4946114;28;20235;-83
2022/10/12 11:41:03;;;;;;;15.47;13.97;;;17.30;99.90;;;;;;4933573;29;20203;-83
2022/10/12 11:43:35;;;;;;;6.83;5.73;;;17.30;99.90;;;;;;4945105;29;20269;-83
2022/10/12 11:46:07;;;;;;;7.57;5.70;;;17.30;99.90;;;;;;4926275;29;20233;-83
2022/10/12 11:48:38;;;;;;;9.43;6.43;;;17.40;99.90;;;;;;4929917;29;20203;-83
2022/10/12 11:51:07;;;;;;;11.10;9.60;;;17.40;99.90;;;;;;4930328;28;20208;-84
2022/10/12 11:53:41;;;;;;;11.03;10.03;;;17.50;99.90;;;;;;4930418;29;20617;-83
2022/10/12 11:56:14;;;;;;;11.40;10.47;;;17.40;99.90;;;;;;4931286;29;20224;-83
2022/10/12 11:58:44;;;;;;;12.27;11.07;;;17.40;99.90;;;;;;4949086;28;20244;-84
2022/10/12 12:01:29;;;;;;;11.93;11.03;;;17.50;99.90;;;;;;4931481;28;20212;-82
2022/10/12 12:04:13;;;;;;;12.60;11.53;;;17.60;99.90;;;;;;4939765;29;20218;-82
2022/10/12 12:06:51;;;;;;;9.77;8.67;;;17.70;99.90;;;;;;4931191;29;20239;-83
2022/10/12 12:09:38;;;;;;;10.57;7.13;;;17.90;99.90;;;;;;4955863;28;20205;-84
2022/10/12 12:12:15;;;;;;;9.80;7.00;;;17.80;99.90;;;;;;4940289;29;20579;-84
2022/10/12 12:15:06;;;;;;;8.33;6.13;;;17.80;99.90;;;;;;4927338;29;20211;-84
2022/10/12 12:17:34;;;;;;;8.93;8.10;;;17.80;99.90;;;;;;4935179;29;20210;-85
2022/10/12 12:20:02;;;;;;;13.33;11.90;;;17.90;99.90;;;;;;4926166;29;20225;-80
2022/10/12 12:22:33;;;;;;;14.03;13.03;;;17.90;99.90;;;;;;4956475;28;20232;-80
2022/10/12 12:25:17;;;;;;;16.03;14.63;;;18.00;99.90;;;;;;4931665;29;20206;-80
2022/10/12 12:27:48;;;;;;;16.53;14.70;;;18.00;99.90;;;;;;4939546;28;20208;-80
2022/10/12 12:30:24;;;;;;;12.70;11.33;;;17.90;99.90;;;;;;4951786;28;20192;-80
2022/10/12 12:32:53;;;;;;;14.07;12.90;;;18.00;99.90;;;;;;4932021;29;20234;-80
2022/10/12 12:35:27;;;;;;;15.50;14.00;;;18.10;99.90;;;;;;4929014;28;20666;-80
2022/10/12 12:38:16;;;;;;;15.63;14.20;;;18.20;99.90;;;;;;4928499;29;20206;-82
2022/10/12 12:40:59;;;;;;;13.40;12.23;;;18.20;99.90;;;;;;4936215;28;20276;-81
2022/10/12 12:43:57;;;;;;;14.27;12.97;;;18.10;99.90;;;;;;4923136;29;20211;-82
2022/10/12 12:46:27;;;;;;;14.03;12.83;;;18.20;99.90;;;;;;4929174;28;20224;-81
2022/10/12 12:49:01;;;;;;;13.47;12.33;;;18.20;99.90;;;;;;4920071;29;20681;-81
2022/10/12 12:51:42;;;;;;;14.77;13.27;;;18.20;99.90;;;;;;4929995;29;20209;-82
2022/10/12 12:54:28;;;;;;;14.63;13.33;;;18.20;99.90;;;;;;4930828;29;20216;-81
2022/10/12 12:57:20;;;;;;;14.87;13.60;;;18.30;99.90;;;;;;4934719;29;20224;-81
2022/10/12 13:00:12;;;;;;;10.40;8.87;;;18.30;99.90;;;;;;4920983;29;20221;-80
2022/10/12 13:03:12;;;;;;;9.67;6.63;;;18.20;99.90;;;;;;4919714;29;20205;-80
2022/10/12 13:06:17;;;;;;;7.53;5.90;;;18.30;99.90;;;;;;4910779;29;1094834;-80
2022/10/12 13:09:00;;;;;;;9.50;5.60;;;18.50;99.90;;;;;;4929474;29;20194;-81
2022/10/12 13:12:02;;;;;;;6.90;5.47;;;18.50;99.90;;;;;;4920476;29;20588;-80
2022/10/12 13:15:02;;;;;;;9.90;8.90;;;18.60;99.90;;;;;;4946071;28;20285;-80
2022/10/12 13:17:44;;;;;;;10.67;6.70;;;18.50;99.90;;;;;;4945889;28;20203;-80
2022/10/12 13:20:18;;;;;;;8.40;6.00;;;18.40;99.90;;;;;;4923175;29;20404;-81
2022/10/12 13:22:47;;;;;;;10.00;6.17;;;18.30;99.90;;;;;;4947346;28;20278;-80